sensor_id;sensor_type;location;lat;lon;timestamp;P1;durP1;ratioP1;P2;durP2;ratioP2
81648;SDS011;71057;51.436;6.768;2023-08-07T00:01:01;8.63;;;2.83;;
81648;SDS011;71057;51.436;6.768;2023-08-07T00:03:26;7.30;;;2.83;;
81648;SDS011;71057;51.436;6.768;2023-08-07T00:05:51;6.70;;;2.63;;
81648;SDS011;71057;51.436;6.768;2023-08-07T00:08:17;10.63;;;3.33;;
81648;SDS011;71057;51.436;6.768;2023-08-07T00:10:42;6.85;;;2.78;;
81648;SDS011;71057;51.436;6.768;2023-08-07T00:13:07;4.77;;;2.37;;
81648;SDS011;71057;51.436;6.768;2023-08-07T00:15:33;9.70;;;2.73;;
81648;SDS011;71057;51.436;6.768;2023-08-07T00:18:01;10.20;;;2.13;;
81648;SDS011;71057;51.436;6.768;2023-08-07T00:20:26;6.60;;;2.17;;
81648;SDS011;71057;51.436;6.768;2023-08-07T00:22:51;8.70;;;2.80;;
81648;SDS011;71057;51.436;6.768;2023-08-07T00:25:16;9.90;;;2.73;;
81648;SDS011;71057;51.436;6.768;2023-08-07T00:27:41;6.03;;;2.57;;
81648;SDS011;71057;51.436;6.768;2023-08-07T00:30:07;6.57;;;2.17;;
81648;SDS011;71057;51.436;6.768;2023-08-07T00:32:32;10.98;;;3.45;;
81648;SDS011;71057;51.436;6.768;2023-08-07T00:34:57;16.07;;;3.10;;
81648;SDS011;71057;51.436;6.768;2023-08-07T00:37:22;12.37;;;3.20;;
81648;SDS011;71057;51.436;6.768;2023-08-07T00:39:47;9.37;;;3.13;;
81648;SDS011;71057;51.436;6.768;2023-08-07T00:42:13;7.73;;;2.60;;
81648;SDS011;71057;51.436;6.768;2023-08-07T00:44:38;6.67;;;2.87;;
81648;SDS011;71057;51.436;6.768;2023-08-07T00:47:03;10.77;;;3.00;;
81648;SDS011;71057;51.436;6.768;2023-08-07T00:49:28;9.77;;;3.60;;
81648;SDS011;71057;51.436;6.768;2023-08-07T00:51:54;9.03;;;2.77;;
81648;SDS011;71057;51.436;6.768;2023-08-07T00:54:19;8.37;;;3.10;;
81648;SDS011;71057;51.436;6.768;2023-08-07T00:56:44;9.00;;;3.20;;
81648;SDS011;71057;51.436;6.768;2023-08-07T00:59:10;7.82;;;2.55;;
81648;SDS011;71057;51.436;6.768;2023-08-07T01:01:35;9.80;;;3.20;;
81648;SDS011;71057;51.436;6.768;2023-08-07T01:04:01;10.77;;;2.95;;
81648;SDS011;71057;51.436;6.768;2023-08-07T01:06:26;9.07;;;3.13;;
81648;SDS011;71057;51.436;6.768;2023-08-07T01:08:51;9.90;;;2.67;;
81648;SDS011;71057;51.436;6.768;2023-08-07T01:13:56;7.68;;;2.47;;
81648;SDS011;71057;51.436;6.768;2023-08-07T01:16:26;8.18;;;2.30;;
81648;SDS011;71057;51.436;6.768;2023-08-07T01:18:53;5.32;;;2.45;;
81648;SDS011;71057;51.436;6.768;2023-08-07T01:21:19;5.72;;;2.03;;
81648;SDS011;71057;51.436;6.768;2023-08-07T01:23:48;7.65;;;2.53;;
81648;SDS011;71057;51.436;6.768;2023-08-07T01:26:13;9.93;;;3.28;;
81648;SDS011;71057;51.436;6.768;2023-08-07T01:28:42;9.07;;;2.88;;
81648;SDS011;71057;51.436;6.768;2023-08-07T01:31:11;5.60;;;3.25;;
81648;SDS011;71057;51.436;6.768;2023-08-07T01:34:24;6.00;;;2.90;;
81648;SDS011;71057;51.436;6.768;2023-08-07T01:36:26;5.60;;;2.38;;
81648;SDS011;71057;51.436;6.768;2023-08-07T01:38:52;7.95;;;2.05;;
81648;SDS011;71057;51.436;6.768;2023-08-07T01:41:17;6.60;;;2.60;;
81648;SDS011;71057;51.436;6.768;2023-08-07T01:43:43;8.30;;;2.53;;
81648;SDS011;71057;51.436;6.768;2023-08-07T01:46:08;6.53;;;2.07;;
81648;SDS011;71057;51.436;6.768;2023-08-07T01:48:35;8.88;;;2.40;;
81648;SDS011;71057;51.436;6.768;2023-08-07T01:51:00;7.93;;;2.13;;
81648;SDS011;71057;51.436;6.768;2023-08-07T01:53:25;6.43;;;2.57;;
81648;SDS011;71057;51.436;6.768;2023-08-07T01:55:50;4.70;;;1.93;;
81648;SDS011;71057;51.436;6.768;2023-08-07T01:58:15;7.37;;;2.40;;
81648;SDS011;71057;51.436;6.768;2023-08-07T02:00:40;8.40;;;2.70;;
81648;SDS011;71057;51.436;6.768;2023-08-07T02:03:06;3.60;;;1.77;;
81648;SDS011;71057;51.436;6.768;2023-08-07T02:05:31;7.73;;;2.77;;
81648;SDS011;71057;51.436;6.768;2023-08-07T02:07:56;8.67;;;3.33;;
81648;SDS011;71057;51.436;6.768;2023-08-07T02:10:21;8.98;;;2.42;;
81648;SDS011;71057;51.436;6.768;2023-08-07T02:12:47;9.50;;;2.70;;
81648;SDS011;71057;51.436;6.768;2023-08-07T02:15:12;7.83;;;2.70;;
81648;SDS011;71057;51.436;6.768;2023-08-07T02:17:37;9.13;;;2.93;;
81648;SDS011;71057;51.436;6.768;2023-08-07T02:20:06;9.10;;;3.10;;
81648;SDS011;71057;51.436;6.768;2023-08-07T02:22:31;10.23;;;3.10;;
81648;SDS011;71057;51.436;6.768;2023-08-07T02:24:56;10.83;;;3.43;;
81648;SDS011;71057;51.436;6.768;2023-08-07T02:27:21;7.43;;;3.00;;
81648;SDS011;71057;51.436;6.768;2023-08-07T02:29:46;9.50;;;3.10;;
81648;SDS011;71057;51.436;6.768;2023-08-07T02:32:12;9.20;;;2.53;;
81648;SDS011;71057;51.436;6.768;2023-08-07T02:34:37;7.10;;;3.30;;
81648;SDS011;71057;51.436;6.768;2023-08-07T02:37:02;9.70;;;3.40;;
81648;SDS011;71057;51.436;6.768;2023-08-07T02:39:27;8.67;;;3.30;;
81648;SDS011;71057;51.436;6.768;2023-08-07T02:41:53;9.37;;;2.63;;
81648;SDS011;71057;51.436;6.768;2023-08-07T02:44:18;11.15;;;3.40;;
81648;SDS011;71057;51.436;6.768;2023-08-07T02:46:44;10.43;;;3.38;;
81648;SDS011;71057;51.436;6.768;2023-08-07T02:49:10;9.77;;;3.60;;
81648;SDS011;71057;51.436;6.768;2023-08-07T02:51:35;9.17;;;3.20;;
81648;SDS011;71057;51.436;6.768;2023-08-07T02:54:00;6.70;;;2.80;;
81648;SDS011;71057;51.436;6.768;2023-08-07T02:56:25;8.52;;;3.92;;
81648;SDS011;71057;51.436;6.768;2023-08-07T02:58:51;11.23;;;3.40;;
81648;SDS011;71057;51.436;6.768;2023-08-07T03:01:16;11.13;;;3.83;;
81648;SDS011;71057;51.436;6.768;2023-08-07T03:03:41;9.03;;;3.73;;
81648;SDS011;71057;51.436;6.768;2023-08-07T03:06:06;10.63;;;3.30;;
81648;SDS011;71057;51.436;6.768;2023-08-07T03:08:31;9.53;;;3.47;;
81648;SDS011;71057;51.436;6.768;2023-08-07T03:10:57;10.70;;;3.45;;
81648;SDS011;71057;51.436;6.768;2023-08-07T03:13:23;8.27;;;2.58;;
81648;SDS011;71057;51.436;6.768;2023-08-07T03:15:48;11.90;;;2.58;;
81648;SDS011;71057;51.436;6.768;2023-08-07T03:18:15;11.60;;;2.67;;
81648;SDS011;71057;51.436;6.768;2023-08-07T03:20:40;10.98;;;2.95;;
81648;SDS011;71057;51.436;6.768;2023-08-07T03:23:05;8.20;;;3.60;;
81648;SDS011;71057;51.436;6.768;2023-08-07T03:25:30;11.20;;;3.10;;
81648;SDS011;71057;51.436;6.768;2023-08-07T03:27:56;8.77;;;2.70;;
81648;SDS011;71057;51.436;6.768;2023-08-07T03:30:21;10.90;;;3.23;;
81648;SDS011;71057;51.436;6.768;2023-08-07T03:32:46;6.70;;;2.70;;
81648;SDS011;71057;51.436;6.768;2023-08-07T03:35:11;9.63;;;2.93;;
81648;SDS011;71057;51.436;6.768;2023-08-07T03:37:36;13.60;;;3.88;;
81648;SDS011;71057;51.436;6.768;2023-08-07T03:40:02;12.53;;;3.60;;
81648;SDS011;71057;51.436;6.768;2023-08-07T03:42:27;10.88;;;3.47;;
81648;SDS011;71057;51.436;6.768;2023-08-07T03:44:52;8.80;;;3.13;;
81648;SDS011;71057;51.436;6.768;2023-08-07T03:47:17;8.97;;;2.73;;
81648;SDS011;71057;51.436;6.768;2023-08-07T03:49:42;9.10;;;3.40;;
81648;SDS011;71057;51.436;6.768;2023-08-07T03:52:08;5.60;;;2.27;;
81648;SDS011;71057;51.436;6.768;2023-08-07T03:54:33;6.77;;;2.63;;
81648;SDS011;71057;51.436;6.768;2023-08-07T03:56:58;8.00;;;2.83;;
81648;SDS011;71057;51.436;6.768;2023-08-07T03:59:23;9.37;;;2.70;;
81648;SDS011;71057;51.436;6.768;2023-08-07T04:01:48;6.63;;;2.47;;
81648;SDS011;71057;51.436;6.768;2023-08-07T04:04:14;9.93;;;3.00;;
81648;SDS011;71057;51.436;6.768;2023-08-07T04:06:39;12.17;;;2.30;;
81648;SDS011;71057;51.436;6.768;2023-08-07T04:09:04;10.10;;;2.93;;
81648;SDS011;71057;51.436;6.768;2023-08-07T04:11:29;10.50;;;3.17;;
81648;SDS011;71057;51.436;6.768;2023-08-07T04:13:54;8.53;;;2.60;;
81648;SDS011;71057;51.436;6.768;2023-08-07T04:16:20;12.63;;;3.40;;
81648;SDS011;71057;51.436;6.768;2023-08-07T04:18:45;11.50;;;2.57;;
81648;SDS011;71057;51.436;6.768;2023-08-07T04:21:10;9.67;;;3.33;;
81648;SDS011;71057;51.436;6.768;2023-08-07T04:23:35;9.23;;;2.23;;
81648;SDS011;71057;51.436;6.768;2023-08-07T04:26:03;9.75;;;3.03;;
81648;SDS011;71057;51.436;6.768;2023-08-07T04:28:28;9.53;;;2.50;;
81648;SDS011;71057;51.436;6.768;2023-08-07T04:30:54;5.78;;;2.05;;
81648;SDS011;71057;51.436;6.768;2023-08-07T04:33:19;9.83;;;2.73;;
81648;SDS011;71057;51.436;6.768;2023-08-07T04:35:45;5.53;;;2.00;;
81648;SDS011;71057;51.436;6.768;2023-08-07T04:38:11;8.40;;;2.28;;
81648;SDS011;71057;51.436;6.768;2023-08-07T04:40:36;8.77;;;2.90;;
81648;SDS011;71057;51.436;6.768;2023-08-07T04:43:02;12.03;;;2.57;;
81648;SDS011;71057;51.436;6.768;2023-08-07T04:45:27;5.90;;;2.77;;
81648;SDS011;71057;51.436;6.768;2023-08-07T04:47:52;9.00;;;3.00;;
81648;SDS011;71057;51.436;6.768;2023-08-07T04:50:17;7.50;;;2.73;;
81648;SDS011;71057;51.436;6.768;2023-08-07T04:52:42;7.68;;;2.78;;
81648;SDS011;71057;51.436;6.768;2023-08-07T04:55:08;7.93;;;2.87;;
81648;SDS011;71057;51.436;6.768;2023-08-07T04:57:33;10.07;;;2.78;;
81648;SDS011;71057;51.436;6.768;2023-08-07T04:59:58;6.33;;;2.50;;
81648;SDS011;71057;51.436;6.768;2023-08-07T05:02:23;10.13;;;2.63;;
81648;SDS011;71057;51.436;6.768;2023-08-07T05:04:49;8.47;;;3.70;;
81648;SDS011;71057;51.436;6.768;2023-08-07T05:07:14;8.47;;;3.07;;
81648;SDS011;71057;51.436;6.768;2023-08-07T05:09:40;11.23;;;3.92;;
81648;SDS011;71057;51.436;6.768;2023-08-07T05:12:05;10.70;;;2.70;;
81648;SDS011;71057;51.436;6.768;2023-08-07T05:14:31;11.85;;;3.25;;
81648;SDS011;71057;51.436;6.768;2023-08-07T05:16:56;9.00;;;3.07;;
81648;SDS011;71057;51.436;6.768;2023-08-07T05:19:22;10.40;;;2.97;;
81648;SDS011;71057;51.436;6.768;2023-08-07T05:21:47;11.37;;;3.43;;
81648;SDS011;71057;51.436;6.768;2023-08-07T05:24:15;8.85;;;3.10;;
81648;SDS011;71057;51.436;6.768;2023-08-07T05:26:41;13.10;;;3.35;;
81648;SDS011;71057;51.436;6.768;2023-08-07T05:29:06;7.93;;;2.80;;
81648;SDS011;71057;51.436;6.768;2023-08-07T05:31:32;10.63;;;4.22;;
81648;SDS011;71057;51.436;6.768;2023-08-07T05:33:58;10.00;;;3.38;;
81648;SDS011;71057;51.436;6.768;2023-08-07T05:36:23;11.90;;;3.97;;
81648;SDS011;71057;51.436;6.768;2023-08-07T05:38:48;8.73;;;3.30;;
81648;SDS011;71057;51.436;6.768;2023-08-07T05:41:13;10.27;;;3.23;;
81648;SDS011;71057;51.436;6.768;2023-08-07T05:43:38;10.03;;;2.57;;
81648;SDS011;71057;51.436;6.768;2023-08-07T05:46:04;9.03;;;2.80;;
81648;SDS011;71057;51.436;6.768;2023-08-07T05:48:29;7.18;;;3.40;;
81648;SDS011;71057;51.436;6.768;2023-08-07T05:50:54;8.10;;;3.73;;
81648;SDS011;71057;51.436;6.768;2023-08-07T05:53:19;8.27;;;3.90;;
81648;SDS011;71057;51.436;6.768;2023-08-07T05:55:45;10.73;;;3.50;;
81648;SDS011;71057;51.436;6.768;2023-08-07T05:58:10;7.33;;;3.73;;
81648;SDS011;71057;51.436;6.768;2023-08-07T06:00:35;10.83;;;4.20;;
81648;SDS011;71057;51.436;6.768;2023-08-07T06:03:00;9.63;;;2.70;;
81648;SDS011;71057;51.436;6.768;2023-08-07T06:05:25;10.60;;;2.77;;
81648;SDS011;71057;51.436;6.768;2023-08-07T06:07:51;7.73;;;2.80;;
81648;SDS011;71057;51.436;6.768;2023-08-07T06:10:16;7.63;;;3.17;;
81648;SDS011;71057;51.436;6.768;2023-08-07T06:12:41;7.43;;;2.70;;
81648;SDS011;71057;51.436;6.768;2023-08-07T06:15:06;6.43;;;3.17;;
81648;SDS011;71057;51.436;6.768;2023-08-07T06:17:31;6.43;;;2.60;;
81648;SDS011;71057;51.436;6.768;2023-08-07T06:19:57;7.17;;;2.67;;
81648;SDS011;71057;51.436;6.768;2023-08-07T06:22:22;6.10;;;2.73;;
81648;SDS011;71057;51.436;6.768;2023-08-07T06:24:47;7.73;;;2.93;;
81648;SDS011;71057;51.436;6.768;2023-08-07T06:27:12;7.00;;;2.70;;
81648;SDS011;71057;51.436;6.768;2023-08-07T06:29:37;5.83;;;3.27;;
81648;SDS011;71057;51.436;6.768;2023-08-07T06:32:03;7.50;;;3.03;;
81648;SDS011;71057;51.436;6.768;2023-08-07T06:34:28;7.50;;;3.15;;
81648;SDS011;71057;51.436;6.768;2023-08-07T06:36:53;5.50;;;2.57;;
81648;SDS011;71057;51.436;6.768;2023-08-07T06:39:18;8.90;;;2.45;;
81648;SDS011;71057;51.436;6.768;2023-08-07T06:41:44;8.23;;;3.00;;
81648;SDS011;71057;51.436;6.768;2023-08-07T06:44:09;7.57;;;2.73;;
81648;SDS011;71057;51.436;6.768;2023-08-07T06:46:34;7.57;;;3.77;;
81648;SDS011;71057;51.436;6.768;2023-08-07T06:48:59;6.73;;;2.77;;
81648;SDS011;71057;51.436;6.768;2023-08-07T06:51:24;10.63;;;3.30;;
81648;SDS011;71057;51.436;6.768;2023-08-07T06:53:50;8.07;;;3.07;;
81648;SDS011;71057;51.436;6.768;2023-08-07T06:56:15;5.43;;;3.33;;
81648;SDS011;71057;51.436;6.768;2023-08-07T06:58:40;8.70;;;3.50;;
81648;SDS011;71057;51.436;6.768;2023-08-07T07:01:05;6.53;;;3.83;;
81648;SDS011;71057;51.436;6.768;2023-08-07T07:03:31;7.97;;;3.17;;
81648;SDS011;71057;51.436;6.768;2023-08-07T07:05:56;7.53;;;3.27;;
81648;SDS011;71057;51.436;6.768;2023-08-07T07:08:21;9.57;;;3.50;;
81648;SDS011;71057;51.436;6.768;2023-08-07T07:10:48;9.40;;;3.97;;
81648;SDS011;71057;51.436;6.768;2023-08-07T07:13:13;12.13;;;3.73;;
81648;SDS011;71057;51.436;6.768;2023-08-07T07:15:38;10.77;;;3.93;;
81648;SDS011;71057;51.436;6.768;2023-08-07T07:18:03;12.77;;;4.20;;
81648;SDS011;71057;51.436;6.768;2023-08-07T07:20:29;11.77;;;3.30;;
81648;SDS011;71057;51.436;6.768;2023-08-07T07:22:54;7.00;;;2.90;;
81648;SDS011;71057;51.436;6.768;2023-08-07T07:25:19;11.47;;;4.30;;
81648;SDS011;71057;51.436;6.768;2023-08-07T07:27:44;11.43;;;3.57;;
81648;SDS011;71057;51.436;6.768;2023-08-07T07:30:09;8.03;;;3.20;;
81648;SDS011;71057;51.436;6.768;2023-08-07T07:32:35;7.78;;;3.45;;
81648;SDS011;71057;51.436;6.768;2023-08-07T07:35:00;6.80;;;3.27;;
81648;SDS011;71057;51.436;6.768;2023-08-07T07:37:25;5.57;;;3.30;;
81648;SDS011;71057;51.436;6.768;2023-08-07T07:39:50;7.87;;;2.83;;
81648;SDS011;71057;51.436;6.768;2023-08-07T07:42:16;7.00;;;3.23;;
81648;SDS011;71057;51.436;6.768;2023-08-07T07:44:41;6.80;;;3.50;;
81648;SDS011;71057;51.436;6.768;2023-08-07T07:47:07;5.80;;;2.88;;
81648;SDS011;71057;51.436;6.768;2023-08-07T07:49:32;9.07;;;3.25;;
81648;SDS011;71057;51.436;6.768;2023-08-07T07:51:58;10.43;;;3.30;;
81648;SDS011;71057;51.436;6.768;2023-08-07T07:54:23;8.18;;;2.83;;
81648;SDS011;71057;51.436;6.768;2023-08-07T07:56:48;8.60;;;3.70;;
81648;SDS011;71057;51.436;6.768;2023-08-07T07:59:13;9.70;;;4.07;;
81648;SDS011;71057;51.436;6.768;2023-08-07T08:01:38;8.97;;;3.07;;
81648;SDS011;71057;51.436;6.768;2023-08-07T08:04:04;8.15;;;3.80;;
81648;SDS011;71057;51.436;6.768;2023-08-07T08:06:29;6.83;;;2.43;;
81648;SDS011;71057;51.436;6.768;2023-08-07T08:08:55;7.78;;;2.80;;
81648;SDS011;71057;51.436;6.768;2023-08-07T08:11:21;5.50;;;2.53;;
81648;SDS011;71057;51.436;6.768;2023-08-07T08:13:46;8.17;;;3.20;;
81648;SDS011;71057;51.436;6.768;2023-08-07T08:16:11;6.03;;;2.80;;
81648;SDS011;71057;51.436;6.768;2023-08-07T08:18:36;6.17;;;3.00;;
81648;SDS011;71057;51.436;6.768;2023-08-07T08:21:01;6.40;;;2.67;;
81648;SDS011;71057;51.436;6.768;2023-08-07T08:23:27;5.73;;;2.80;;
81648;SDS011;71057;51.436;6.768;2023-08-07T08:25:52;7.80;;;2.47;;
81648;SDS011;71057;51.436;6.768;2023-08-07T08:28:17;5.43;;;2.53;;
81648;SDS011;71057;51.436;6.768;2023-08-07T08:30:43;6.50;;;2.58;;
81648;SDS011;71057;51.436;6.768;2023-08-07T08:33:08;7.83;;;2.60;;
81648;SDS011;71057;51.436;6.768;2023-08-07T08:35:37;7.88;;;2.88;;
81648;SDS011;71057;51.436;6.768;2023-08-07T08:38:02;8.47;;;2.90;;
81648;SDS011;71057;51.436;6.768;2023-08-07T08:40:28;4.97;;;2.35;;
81648;SDS011;71057;51.436;6.768;2023-08-07T08:42:54;5.60;;;2.20;;
81648;SDS011;71057;51.436;6.768;2023-08-07T08:45:22;5.75;;;2.50;;
81648;SDS011;71057;51.436;6.768;2023-08-07T08:47:48;4.40;;;2.58;;
81648;SDS011;71057;51.436;6.768;2023-08-07T08:50:16;8.88;;;2.92;;
81648;SDS011;71057;51.436;6.768;2023-08-07T08:52:42;5.40;;;2.40;;
81648;SDS011;71057;51.436;6.768;2023-08-07T08:55:09;12.07;;;3.20;;
81648;SDS011;71057;51.436;6.768;2023-08-07T08:57:34;8.48;;;2.53;;
81648;SDS011;71057;51.436;6.768;2023-08-07T09:00:00;8.00;;;2.83;;
81648;SDS011;71057;51.436;6.768;2023-08-07T09:02:27;5.03;;;2.13;;
81648;SDS011;71057;51.436;6.768;2023-08-07T09:04:52;7.28;;;2.53;;
81648;SDS011;71057;51.436;6.768;2023-08-07T09:07:17;7.60;;;3.03;;
81648;SDS011;71057;51.436;6.768;2023-08-07T09:09:44;6.82;;;3.20;;
81648;SDS011;71057;51.436;6.768;2023-08-07T09:12:13;5.28;;;2.67;;
81648;SDS011;71057;51.436;6.768;2023-08-07T09:14:41;11.43;;;3.45;;
81648;SDS011;71057;51.436;6.768;2023-08-07T09:17:06;10.88;;;3.55;;
81648;SDS011;71057;51.436;6.768;2023-08-07T09:19:32;6.55;;;3.10;;
81648;SDS011;71057;51.436;6.768;2023-08-07T09:21:57;9.25;;;3.13;;
81648;SDS011;71057;51.436;6.768;2023-08-07T09:24:23;8.10;;;3.30;;
81648;SDS011;71057;51.436;6.768;2023-08-07T09:26:48;7.20;;;3.67;;
81648;SDS011;71057;51.436;6.768;2023-08-07T09:29:15;6.68;;;2.97;;
81648;SDS011;71057;51.436;6.768;2023-08-07T09:31:43;8.77;;;3.50;;
81648;SDS011;71057;51.436;6.768;2023-08-07T09:34:10;8.48;;;3.97;;
81648;SDS011;71057;51.436;6.768;2023-08-07T09:36:35;9.85;;;3.53;;
81648;SDS011;71057;51.436;6.768;2023-08-07T09:39:01;7.97;;;3.17;;
81648;SDS011;71057;51.436;6.768;2023-08-07T09:41:27;8.75;;;2.85;;
81648;SDS011;71057;51.436;6.768;2023-08-07T09:43:53;8.32;;;3.30;;
81648;SDS011;71057;51.436;6.768;2023-08-07T09:46:19;8.33;;;3.23;;
81648;SDS011;71057;51.436;6.768;2023-08-07T09:48:44;5.77;;;2.63;;
81648;SDS011;71057;51.436;6.768;2023-08-07T09:51:09;7.93;;;2.90;;
81648;SDS011;71057;51.436;6.768;2023-08-07T09:53:35;7.63;;;3.05;;
81648;SDS011;71057;51.436;6.768;2023-08-07T09:56:00;7.87;;;3.20;;
81648;SDS011;71057;51.436;6.768;2023-08-07T09:58:25;6.20;;;3.10;;
81648;SDS011;71057;51.436;6.768;2023-08-07T10:00:51;6.97;;;3.00;;
81648;SDS011;71057;51.436;6.768;2023-08-07T10:03:20;8.50;;;2.95;;
81648;SDS011;71057;51.436;6.768;2023-08-07T10:05:46;5.90;;;2.47;;
81648;SDS011;71057;51.436;6.768;2023-08-07T10:08:11;6.78;;;2.97;;
81648;SDS011;71057;51.436;6.768;2023-08-07T10:10:37;9.13;;;3.40;;
81648;SDS011;71057;51.436;6.768;2023-08-07T10:13:03;8.30;;;2.92;;
81648;SDS011;71057;51.436;6.768;2023-08-07T10:15:31;7.35;;;2.67;;
81648;SDS011;71057;51.436;6.768;2023-08-07T10:17:56;8.32;;;2.90;;
81648;SDS011;71057;51.436;6.768;2023-08-07T10:20:22;7.77;;;2.63;;
81648;SDS011;71057;51.436;6.768;2023-08-07T10:22:49;6.28;;;2.75;;
81648;SDS011;71057;51.436;6.768;2023-08-07T10:25:15;6.85;;;2.30;;
81648;SDS011;71057;51.436;6.768;2023-08-07T10:27:41;9.73;;;2.90;;
81648;SDS011;71057;51.436;6.768;2023-08-07T10:30:08;6.32;;;2.78;;
81648;SDS011;71057;51.436;6.768;2023-08-07T10:32:35;6.65;;;2.55;;
81648;SDS011;71057;51.436;6.768;2023-08-07T10:35:03;6.70;;;2.67;;
81648;SDS011;71057;51.436;6.768;2023-08-07T10:37:38;7.32;;;3.25;;
81648;SDS011;71057;51.436;6.768;2023-08-07T10:40:04;9.73;;;3.42;;
81648;SDS011;71057;51.436;6.768;2023-08-07T10:42:49;7.43;;;3.05;;
81648;SDS011;71057;51.436;6.768;2023-08-07T10:45:16;6.82;;;2.97;;
81648;SDS011;71057;51.436;6.768;2023-08-07T10:47:42;10.00;;;3.60;;
81648;SDS011;71057;51.436;6.768;2023-08-07T10:50:07;7.77;;;3.27;;
81648;SDS011;71057;51.436;6.768;2023-08-07T10:52:34;7.53;;;2.80;;
81648;SDS011;71057;51.436;6.768;2023-08-07T10:55:03;7.22;;;3.03;;
81648;SDS011;71057;51.436;6.768;2023-08-07T10:57:37;7.55;;;3.10;;
81648;SDS011;71057;51.436;6.768;2023-08-07T11:00:04;7.25;;;3.03;;
81648;SDS011;71057;51.436;6.768;2023-08-07T11:02:35;7.80;;;3.95;;
81648;SDS011;71057;51.436;6.768;2023-08-07T11:05:01;8.63;;;3.28;;
81648;SDS011;71057;51.436;6.768;2023-08-07T11:07:27;8.27;;;3.30;;
81648;SDS011;71057;51.436;6.768;2023-08-07T11:09:53;9.35;;;3.78;;
81648;SDS011;71057;51.436;6.768;2023-08-07T11:12:18;4.80;;;2.83;;
81648;SDS011;71057;51.436;6.768;2023-08-07T11:14:44;7.07;;;2.95;;
81648;SDS011;71057;51.436;6.768;2023-08-07T11:17:09;9.33;;;3.43;;
81648;SDS011;71057;51.436;6.768;2023-08-07T11:19:34;6.20;;;2.70;;
81648;SDS011;71057;51.436;6.768;2023-08-07T11:22:00;5.40;;;2.75;;
81648;SDS011;71057;51.436;6.768;2023-08-07T11:24:26;7.57;;;2.80;;
81648;SDS011;71057;51.436;6.768;2023-08-07T11:26:51;9.25;;;3.55;;
81648;SDS011;71057;51.436;6.768;2023-08-07T11:29:17;6.32;;;2.40;;
81648;SDS011;71057;51.436;6.768;2023-08-07T11:31:43;8.45;;;3.03;;
81648;SDS011;71057;51.436;6.768;2023-08-07T11:34:08;7.53;;;3.23;;
81648;SDS011;71057;51.436;6.768;2023-08-07T11:36:40;8.55;;;4.70;;
81648;SDS011;71057;51.436;6.768;2023-08-07T11:39:05;7.18;;;2.85;;
81648;SDS011;71057;51.436;6.768;2023-08-07T11:41:31;4.88;;;2.70;;
81648;SDS011;71057;51.436;6.768;2023-08-07T11:43:56;6.72;;;2.35;;
81648;SDS011;71057;51.436;6.768;2023-08-07T11:46:21;5.40;;;2.97;;
81648;SDS011;71057;51.436;6.768;2023-08-07T11:48:47;5.43;;;2.47;;
81648;SDS011;71057;51.436;6.768;2023-08-07T11:51:12;6.77;;;2.40;;
81648;SDS011;71057;51.436;6.768;2023-08-07T11:53:39;7.88;;;2.63;;
81648;SDS011;71057;51.436;6.768;2023-08-07T11:56:05;12.90;;;3.35;;
81648;SDS011;71057;51.436;6.768;2023-08-07T11:58:38;6.05;;;2.83;;
81648;SDS011;71057;51.436;6.768;2023-08-07T12:01:14;6.43;;;2.45;;
81648;SDS011;71057;51.436;6.768;2023-08-07T12:03:41;6.68;;;2.88;;
81648;SDS011;71057;51.436;6.768;2023-08-07T12:06:07;4.60;;;2.60;;
81648;SDS011;71057;51.436;6.768;2023-08-07T12:08:37;8.23;;;2.65;;
81648;SDS011;71057;51.436;6.768;2023-08-07T12:11:03;8.35;;;2.35;;
81648;SDS011;71057;51.436;6.768;2023-08-07T12:13:29;6.43;;;2.28;;
81648;SDS011;71057;51.436;6.768;2023-08-07T12:15:55;5.50;;;2.50;;
81648;SDS011;71057;51.436;6.768;2023-08-07T12:18:20;6.60;;;2.05;;
81648;SDS011;71057;51.436;6.768;2023-08-07T12:20:47;6.82;;;2.55;;
81648;SDS011;71057;51.436;6.768;2023-08-07T12:23:16;5.00;;;2.17;;
81648;SDS011;71057;51.436;6.768;2023-08-07T12:25:42;5.78;;;2.65;;
81648;SDS011;71057;51.436;6.768;2023-08-07T12:28:07;5.78;;;2.60;;
81648;SDS011;71057;51.436;6.768;2023-08-07T12:30:35;4.70;;;1.80;;
81648;SDS011;71057;51.436;6.768;2023-08-07T12:33:01;6.10;;;2.50;;
81648;SDS011;71057;51.436;6.768;2023-08-07T12:35:28;6.30;;;1.90;;
81648;SDS011;71057;51.436;6.768;2023-08-07T12:37:53;5.20;;;1.90;;
81648;SDS011;71057;51.436;6.768;2023-08-07T12:40:18;4.07;;;1.70;;
81648;SDS011;71057;51.436;6.768;2023-08-07T12:42:45;5.95;;;2.05;;
81648;SDS011;71057;51.436;6.768;2023-08-07T12:45:11;7.77;;;2.60;;
81648;SDS011;71057;51.436;6.768;2023-08-07T12:47:36;4.77;;;2.13;;
81648;SDS011;71057;51.436;6.768;2023-08-07T12:50:01;6.35;;;2.10;;
81648;SDS011;71057;51.436;6.768;2023-08-07T12:52:26;5.27;;;2.53;;
81648;SDS011;71057;51.436;6.768;2023-08-07T12:54:51;6.17;;;2.07;;
81648;SDS011;71057;51.436;6.768;2023-08-07T12:57:17;5.97;;;2.30;;
81648;SDS011;71057;51.436;6.768;2023-08-07T12:59:42;5.23;;;2.00;;
81648;SDS011;71057;51.436;6.768;2023-08-07T13:02:07;4.73;;;1.90;;
81648;SDS011;71057;51.436;6.768;2023-08-07T13:04:32;4.30;;;2.20;;
81648;SDS011;71057;51.436;6.768;2023-08-07T13:06:58;8.05;;;3.50;;
81648;SDS011;71057;51.436;6.768;2023-08-07T13:09:24;5.90;;;1.83;;
81648;SDS011;71057;51.436;6.768;2023-08-07T13:11:49;3.75;;;2.28;;
81648;SDS011;71057;51.436;6.768;2023-08-07T13:14:14;5.63;;;2.23;;
81648;SDS011;71057;51.436;6.768;2023-08-07T13:16:39;5.00;;;1.53;;
81648;SDS011;71057;51.436;6.768;2023-08-07T13:19:05;4.93;;;1.70;;
81648;SDS011;71057;51.436;6.768;2023-08-07T13:21:30;4.10;;;1.67;;
81648;SDS011;71057;51.436;6.768;2023-08-07T13:23:55;5.10;;;1.70;;
81648;SDS011;71057;51.436;6.768;2023-08-07T13:26:21;2.78;;;1.17;;
81648;SDS011;71057;51.436;6.768;2023-08-07T13:28:46;4.33;;;1.70;;
81648;SDS011;71057;51.436;6.768;2023-08-07T13:31:11;3.43;;;1.90;;
81648;SDS011;71057;51.436;6.768;2023-08-07T13:33:36;6.40;;;1.73;;
81648;SDS011;71057;51.436;6.768;2023-08-07T13:36:02;3.83;;;1.70;;
81648;SDS011;71057;51.436;6.768;2023-08-07T13:38:27;4.37;;;1.60;;
81648;SDS011;71057;51.436;6.768;2023-08-07T13:40:52;4.53;;;1.83;;
81648;SDS011;71057;51.436;6.768;2023-08-07T13:43:17;6.83;;;2.03;;
81648;SDS011;71057;51.436;6.768;2023-08-07T13:45:42;3.40;;;2.03;;
81648;SDS011;71057;51.436;6.768;2023-08-07T13:48:08;5.10;;;1.77;;
81648;SDS011;71057;51.436;6.768;2023-08-07T13:50:34;4.80;;;1.88;;
81648;SDS011;71057;51.436;6.768;2023-08-07T13:52:59;5.33;;;2.00;;
81648;SDS011;71057;51.436;6.768;2023-08-07T13:55:25;3.87;;;1.77;;
81648;SDS011;71057;51.436;6.768;2023-08-07T13:57:50;3.73;;;1.80;;
81648;SDS011;71057;51.436;6.768;2023-08-07T14:00:15;5.10;;;1.80;;
81648;SDS011;71057;51.436;6.768;2023-08-07T14:02:40;4.57;;;1.95;;
81648;SDS011;71057;51.436;6.768;2023-08-07T14:05:06;5.57;;;1.80;;
81648;SDS011;71057;51.436;6.768;2023-08-07T14:07:31;2.75;;;1.75;;
81648;SDS011;71057;51.436;6.768;2023-08-07T14:09:56;3.67;;;1.50;;
81648;SDS011;71057;51.436;6.768;2023-08-07T14:12:21;4.23;;;1.33;;
81648;SDS011;71057;51.436;6.768;2023-08-07T14:14:47;2.70;;;1.73;;
81648;SDS011;71057;51.436;6.768;2023-08-07T14:17:12;3.38;;;1.70;;
81648;SDS011;71057;51.436;6.768;2023-08-07T14:19:37;2.47;;;1.30;;
81648;SDS011;71057;51.436;6.768;2023-08-07T14:22:03;8.05;;;1.77;;
81648;SDS011;71057;51.436;6.768;2023-08-07T14:24:28;4.67;;;3.30;;
81648;SDS011;71057;51.436;6.768;2023-08-07T14:26:53;3.60;;;2.20;;
81648;SDS011;71057;51.436;6.768;2023-08-07T14:29:18;3.15;;;1.30;;
81648;SDS011;71057;51.436;6.768;2023-08-07T14:31:44;4.05;;;2.05;;
81648;SDS011;71057;51.436;6.768;2023-08-07T14:34:10;2.53;;;1.20;;
81648;SDS011;71057;51.436;6.768;2023-08-07T14:36:35;2.83;;;1.40;;
81648;SDS011;71057;51.436;6.768;2023-08-07T14:39:00;4.40;;;1.90;;